createdAt,value
2022-12-20T00:01:59.713Z,11.35
2022-12-20T00:04:26.657Z,7.13
2022-12-20T00:06:53.702Z,10.65
2022-12-20T00:09:20.763Z,10.00
2022-12-20T00:11:47.867Z,7.65
2022-12-20T00:14:14.810Z,12.48
2022-12-20T00:16:41.699Z,6.50
2022-12-20T00:19:11.086Z,7.93
2022-12-20T00:21:38.403Z,9.48
2022-12-20T00:24:06.606Z,9.05
2022-12-20T00:26:35.361Z,8.50
2022-12-20T00:29:02.631Z,12.02
2022-12-20T00:31:30.634Z,8.68
2022-12-20T00:33:59.076Z,7.97
2022-12-20T00:36:27.968Z,10.13
2022-12-20T00:38:56.823Z,11.05
2022-12-20T00:41:29.895Z,10.30
2022-12-20T00:43:57.032Z,8.70
2022-12-20T00:46:25.111Z,9.13
2022-12-20T00:48:53.466Z,12.90
2022-12-20T00:51:24.057Z,8.60
2022-12-20T00:53:51.127Z,9.27
2022-12-20T00:56:19.013Z,9.35
2022-12-20T00:58:46.091Z,9.07
2022-12-20T01:01:31.981Z,13.88
2022-12-20T01:03:59.905Z,9.82
2022-12-20T01:06:30.805Z,7.85
2022-12-20T01:08:58.920Z,8.88
2022-12-20T01:11:29.495Z,5.53
2022-12-20T01:13:59.857Z,8.73
2022-12-20T01:16:32.819Z,10.25
2022-12-20T01:19:00.589Z,8.60
2022-12-20T01:21:28.154Z,11.02
2022-12-20T01:23:55.562Z,6.15
2022-12-20T01:26:25.480Z,8.05
2022-12-20T01:28:54.850Z,9.68
2022-12-20T01:31:22.194Z,7.57
2022-12-20T01:33:50.359Z,8.40
2022-12-20T01:36:26.768Z,7.15
2022-12-20T01:39:05.213Z,10.15
2022-12-20T01:41:33.494Z,11.45
2022-12-20T01:44:05.673Z,7.00
2022-12-20T01:46:39.740Z,8.48
2022-12-20T01:49:10.923Z,7.50
2022-12-20T01:51:43.549Z,7.93
2022-12-20T01:54:47.975Z,9.48
2022-12-20T01:57:41.171Z,8.02
2022-12-20T02:00:09.942Z,6.78
2022-12-20T02:02:37.417Z,8.43
2022-12-20T02:05:05.305Z,9.52
2022-12-20T02:07:35.281Z,6.50
2022-12-20T02:10:02.933Z,7.45
2022-12-20T02:12:45.157Z,6.47
2022-12-20T02:15:27.463Z,9.35
2022-12-20T02:18:19.115Z,5.05
2022-12-20T02:20:55.563Z,6.95
2022-12-20T02:23:31.729Z,9.73
2022-12-20T02:26:17.354Z,7.78
2022-12-20T02:28:56.493Z,9.65
2022-12-20T02:31:33.190Z,8.82
2022-12-20T02:34:01.802Z,9.82
2022-12-20T02:36:29.060Z,12.00
2022-12-20T02:38:56.113Z,6.57
2022-12-20T02:41:28.080Z,6.53
2022-12-20T02:44:18.226Z,6.18
2022-12-20T02:46:47.422Z,7.47
2022-12-20T02:49:18.508Z,6.82
2022-12-20T02:51:49.392Z,9.45
2022-12-20T02:54:17.840Z,7.75
2022-12-20T02:57:00.236Z,8.98
2022-12-20T02:59:34.521Z,7.47
2022-12-20T03:02:02.709Z,4.97
2022-12-20T03:04:34.367Z,8.02
2022-12-20T03:07:05.490Z,10.23
2022-12-20T03:09:35.159Z,5.32
2022-12-20T03:12:03.465Z,6.30
2022-12-20T03:14:30.446Z,5.65
2022-12-20T03:16:57.634Z,5.72
2022-12-20T03:19:24.957Z,6.68
2022-12-20T03:21:52.948Z,5.90
2022-12-20T03:24:19.994Z,4.90
2022-12-20T03:26:47.150Z,6.32
2022-12-20T03:29:14.713Z,8.27
2022-12-20T03:31:41.804Z,6.10
2022-12-20T03:34:09.031Z,4.28
2022-12-20T03:36:36.003Z,7.38
2022-12-20T03:39:03.038Z,7.32
2022-12-20T03:41:30.208Z,6.68
2022-12-20T03:43:57.102Z,5.82
2022-12-20T03:46:24.349Z,6.70
2022-12-20T03:48:51.256Z,7.63
2022-12-20T03:51:18.196Z,4.53
2022-12-20T03:53:45.376Z,6.40
2022-12-20T03:56:12.543Z,8.25
2022-12-20T03:58:39.491Z,5.82
2022-12-20T04:01:19.913Z,5.22
2022-12-20T04:03:47.528Z,4.97
2022-12-20T04:06:15.007Z,6.65
2022-12-20T04:08:42.452Z,5.88
2022-12-20T04:11:18.447Z,5.68
2022-12-20T04:13:53.809Z,6.00
2022-12-20T04:16:25.378Z,9.05
2022-12-20T04:18:52.710Z,8.65
2022-12-20T04:21:29.445Z,6.50
2022-12-20T04:23:57.158Z,6.05
2022-12-20T04:26:24.848Z,5.43
2022-12-20T04:28:51.736Z,7.32
2022-12-20T04:31:23.800Z,7.18
2022-12-20T04:33:51.603Z,6.75
2022-12-20T04:36:18.685Z,10.63
2022-12-20T04:38:45.999Z,7.53
2022-12-20T04:41:22.798Z,9.00
2022-12-20T04:43:55.386Z,9.25
2022-12-20T04:46:23.521Z,6.25
2022-12-20T04:48:59.573Z,7.93
2022-12-20T04:51:28.042Z,4.82
2022-12-20T04:53:55.804Z,5.05
2022-12-20T04:56:29.126Z,6.90
2022-12-20T04:58:57.701Z,4.32
2022-12-20T05:01:25.113Z,7.38
2022-12-20T05:03:52.427Z,8.85
2022-12-20T05:06:19.306Z,6.28
2022-12-20T05:08:46.246Z,6.38
2022-12-20T05:11:13.369Z,7.63
2022-12-20T05:13:40.633Z,4.60
2022-12-20T05:16:07.882Z,11.05
2022-12-20T05:18:35.045Z,6.28
2022-12-20T05:21:21.025Z,5.97
2022-12-20T05:24:06.897Z,5.88
2022-12-20T05:26:36.632Z,7.15
2022-12-20T05:29:05.637Z,6.03
2022-12-20T05:31:33.019Z,5.03
2022-12-20T05:34:00.438Z,10.07
2022-12-20T05:36:27.448Z,5.72
2022-12-20T05:38:58.197Z,7.30
2022-12-20T05:41:30.550Z,5.43
2022-12-20T05:43:57.923Z,5.93
2022-12-20T05:46:25.203Z,4.80
2022-12-20T05:48:53.124Z,6.95
2022-12-20T05:51:20.175Z,6.25
2022-12-20T05:53:47.269Z,4.03
2022-12-20T05:56:14.078Z,7.70
2022-12-20T05:58:40.980Z,4.82
2022-12-20T06:01:09.276Z,4.65
2022-12-20T06:03:36.975Z,8.40
2022-12-20T06:06:10.214Z,8.30
2022-12-20T06:08:40.712Z,6.50
2022-12-20T06:11:07.810Z,3.90
2022-12-20T06:13:35.081Z,7.57
2022-12-20T06:16:01.996Z,7.50
2022-12-20T06:18:28.996Z,8.10
2022-12-20T06:20:56.044Z,6.40
2022-12-20T06:23:23.541Z,9.88
2022-12-20T06:25:50.727Z,10.75
2022-12-20T06:28:22.233Z,7.72
2022-12-20T06:30:57.124Z,7.05
2022-12-20T06:33:25.305Z,7.70
2022-12-20T06:35:53.031Z,6.55
2022-12-20T06:38:20.279Z,11.05
2022-12-20T06:40:47.287Z,6.03
2022-12-20T06:43:14.537Z,8.57
2022-12-20T06:45:42.453Z,11.38
2022-12-20T06:48:10.316Z,8.63
2022-12-20T06:50:38.704Z,4.95
2022-12-20T06:53:05.917Z,7.97
2022-12-20T06:55:33.024Z,5.95
2022-12-20T06:58:00.091Z,7.03
2022-12-20T07:00:27.538Z,7.78
2022-12-20T07:02:55.014Z,7.80
2022-12-20T07:05:22.077Z,9.98
2022-12-20T07:07:49.303Z,7.00
2022-12-20T07:10:16.593Z,5.45
2022-12-20T07:12:50.392Z,6.72
2022-12-20T07:15:17.426Z,9.15
2022-12-20T07:17:44.889Z,10.20
2022-12-20T07:20:13.984Z,7.70
2022-12-20T07:22:41.738Z,10.38
2022-12-20T07:25:09.410Z,9.40
2022-12-20T07:27:36.686Z,6.28
2022-12-20T07:30:05.441Z,9.90
2022-12-20T07:32:32.744Z,7.72
2022-12-20T07:34:59.750Z,6.88
2022-12-20T07:37:29.552Z,6.82
2022-12-20T07:39:56.674Z,10.43
2022-12-20T07:42:26.379Z,6.88
2022-12-20T07:44:58.766Z,5.03
2022-12-20T07:47:25.842Z,8.65
2022-12-20T07:49:52.808Z,5.72
2022-12-20T07:52:23.478Z,8.18
2022-12-20T07:54:56.060Z,8.30
2022-12-20T07:57:29.949Z,9.45
2022-12-20T07:59:59.321Z,6.57
2022-12-20T08:02:33.068Z,8.15
2022-12-20T08:05:00.738Z,6.00
2022-12-20T08:07:29.880Z,5.20
2022-12-20T08:09:56.983Z,10.60
2022-12-20T08:12:26.160Z,7.22
2022-12-20T08:14:56.510Z,13.13
2022-12-20T08:17:23.596Z,10.18
2022-12-20T08:19:52.190Z,8.75
2022-12-20T08:22:19.926Z,9.27
2022-12-20T08:24:47.250Z,10.15
2022-12-20T08:27:15.303Z,10.02
2022-12-20T08:29:43.203Z,7.30
2022-12-20T08:32:10.865Z,6.35
2022-12-20T08:34:37.726Z,8.15
2022-12-20T08:37:09.226Z,8.65
2022-12-20T08:39:41.576Z,11.85
2022-12-20T08:42:08.498Z,9.43
2022-12-20T08:44:35.402Z,11.23
2022-12-20T08:47:02.489Z,8.73
2022-12-20T08:49:29.609Z,7.90
2022-12-20T08:51:56.797Z,8.60
2022-12-20T08:54:23.794Z,10.27
2022-12-20T08:56:51.017Z,7.35
2022-12-20T08:59:18.237Z,12.23
2022-12-20T09:01:45.469Z,11.90
2022-12-20T09:04:13.052Z,10.52
2022-12-20T09:06:39.972Z,7.80
2022-12-20T09:09:07.407Z,8.70
2022-12-20T09:11:34.629Z,13.93
2022-12-20T09:14:01.540Z,10.40
2022-12-20T09:16:31.188Z,11.20
2022-12-20T09:19:05.097Z,11.60
2022-12-20T09:21:33.522Z,13.50
2022-12-20T09:24:00.529Z,11.23
2022-12-20T09:26:27.536Z,8.70
2022-12-20T09:28:54.509Z,10.65
2022-12-20T09:31:25.257Z,10.38
2022-12-20T09:33:58.115Z,9.98
2022-12-20T09:36:26.652Z,10.30
2022-12-20T09:38:55.175Z,11.73
2022-12-20T09:41:38.154Z,14.55
2022-12-20T09:44:28.539Z,11.60
2022-12-20T09:47:11.139Z,14.43
2022-12-20T09:49:42.097Z,11.32
2022-12-20T09:52:24.226Z,10.85
2022-12-20T09:55:25.378Z,10.57
2022-12-20T09:58:03.570Z,10.65
2022-12-20T10:00:35.210Z,12.27
2022-12-20T10:03:10.408Z,16.27
2022-12-20T10:05:47.378Z,10.10
2022-12-20T10:08:24.789Z,11.18
2022-12-20T10:11:05.454Z,10.05
2022-12-20T10:13:52.537Z,9.48
2022-12-20T10:16:42.840Z,6.95
2022-12-20T10:19:29.307Z,12.30
2022-12-20T10:22:18.041Z,10.60
2022-12-20T10:25:01.819Z,12.05
2022-12-20T10:27:29.285Z,14.32
2022-12-20T10:29:57.482Z,9.07
2022-12-20T10:32:24.523Z,11.48
2022-12-20T10:35:15.580Z,9.02
2022-12-20T10:38:09.966Z,14.32
2022-12-20T10:41:20.107Z,10.23
2022-12-20T10:43:44.540Z,13.15
2022-12-20T10:46:13.444Z,13.02
2022-12-20T10:48:42.768Z,12.65
2022-12-20T10:51:16.568Z,11.25
2022-12-20T10:53:58.216Z,11.05
2022-12-20T10:56:29.176Z,9.38
2022-12-20T10:59:15.477Z,8.82
2022-12-20T11:01:46.322Z,11.48
2022-12-20T11:04:38.876Z,10.18
2022-12-20T11:07:25.938Z,8.40
2022-12-20T11:09:56.936Z,13.30
2022-12-20T11:12:27.654Z,12.65
2022-12-20T11:15:21.606Z,9.43
2022-12-20T11:18:17.478Z,9.77
2022-12-20T11:20:58.738Z,8.27
2022-12-20T11:23:37.783Z,10.52
2022-12-20T11:26:13.649Z,13.75
2022-12-20T11:28:56.769Z,9.88
2022-12-20T11:31:52.174Z,11.23
2022-12-20T11:34:43.380Z,9.63
2022-12-20T11:37:22.346Z,10.63
2022-12-20T11:39:49.120Z,14.20
2022-12-20T11:42:22.038Z,8.90
2022-12-20T11:45:13.888Z,11.00
2022-12-20T11:48:17.233Z,11.45
2022-12-20T11:51:02.260Z,7.95
2022-12-20T11:54:03.845Z,8.18
2022-12-20T11:56:43.588Z,17.35
2022-12-20T11:59:23.776Z,11.73
2022-12-20T12:01:58.029Z,9.23
2022-12-20T12:04:32.661Z,9.63
2022-12-20T12:07:28.876Z,9.90
2022-12-20T12:10:23.069Z,9.25
2022-12-20T12:13:19.028Z,14.50
2022-12-20T12:16:27.476Z,13.15
2022-12-20T12:18:54.715Z,9.77
2022-12-20T12:21:28.711Z,9.27
2022-12-20T12:24:05.857Z,10.30
2022-12-20T12:26:41.827Z,12.63
2022-12-20T12:29:17.563Z,9.55
2022-12-20T12:31:56.917Z,10.48
2022-12-20T12:34:51.076Z,13.13
2022-12-20T12:37:50.054Z,9.10
2022-12-20T12:40:58.617Z,12.73
2022-12-20T12:43:49.082Z,9.32
2022-12-20T12:46:22.933Z,14.85
2022-12-20T12:49:06.690Z,11.13
2022-12-20T12:51:36.768Z,12.85
2022-12-20T12:54:23.640Z,14.23
2022-12-20T12:57:01.956Z,11.18
2022-12-20T12:59:34.553Z,10.13
2022-12-20T13:02:04.724Z,11.77
2022-12-20T13:04:56.220Z,13.32
2022-12-20T13:07:43.706Z,13.13
2022-12-20T13:10:19.345Z,12.38
2022-12-20T13:12:52.186Z,14.07
2022-12-20T13:15:22.785Z,12.23
2022-12-20T13:17:59.798Z,9.43
2022-12-20T13:20:28.338Z,15.60
2022-12-20T13:23:13.316Z,15.23
2022-12-20T13:25:43.747Z,12.50
2022-12-20T13:28:18.170Z,10.70
2022-12-20T13:30:48.006Z,16.95
2022-12-20T13:33:51.679Z,11.88
2022-12-20T13:36:35.191Z,15.88
2022-12-20T13:39:24.469Z,13.68
2022-12-20T13:42:23.036Z,14.55
2022-12-20T13:44:52.513Z,12.43
2022-12-20T13:47:36.863Z,14.15
2022-12-20T13:50:27.573Z,16.15
2022-12-20T13:52:54.888Z,15.80
2022-12-20T13:55:43.218Z,15.73
2022-12-20T13:58:47.284Z,16.30
2022-12-20T14:01:15.097Z,16.15
2022-12-20T14:03:45.776Z,16.60
2022-12-20T14:06:14.860Z,15.07
2022-12-20T14:08:48.336Z,12.50
2022-12-20T14:11:23.856Z,15.32
2022-12-20T14:13:59.550Z,17.13
2022-12-20T14:16:28.569Z,18.23
2022-12-20T14:19:05.781Z,13.98
2022-12-20T14:21:38.287Z,16.55
2022-12-20T14:24:06.707Z,19.98
2022-12-20T14:26:41.670Z,14.13
2022-12-20T14:29:16.391Z,18.05
2022-12-20T14:31:45.981Z,17.80
2022-12-20T14:34:19.003Z,14.02
2022-12-20T14:36:48.665Z,20.90
2022-12-20T14:39:29.793Z,27.63
2022-12-20T14:42:06.653Z,21.25
2022-12-20T14:44:35.073Z,16.80
2022-12-20T14:47:24.884Z,18.25
2022-12-20T14:49:57.602Z,17.17
2022-12-20T14:52:34.442Z,18.92
2022-12-20T14:55:10.592Z,17.27
2022-12-20T14:57:39.536Z,20.98
2022-12-20T15:00:12.489Z,18.00
2022-12-20T15:02:49.806Z,15.90
2022-12-20T15:05:35.858Z,15.23
2022-12-20T15:08:18.873Z,17.25
2022-12-20T15:11:08.638Z,18.50
2022-12-20T15:13:38.117Z,19.98
2022-12-20T15:16:18.464Z,20.88
2022-12-20T15:18:50.091Z,15.95
2022-12-20T15:21:26.286Z,15.20
2022-12-20T15:24:22.217Z,18.00
2022-12-20T15:27:03.449Z,18.98
2022-12-20T15:30:00.179Z,15.45
2022-12-20T15:32:38.720Z,16.35
2022-12-20T15:35:37.793Z,22.33
2022-12-20T15:38:41.267Z,21.52
2022-12-20T15:41:39.127Z,20.80
2022-12-20T15:44:23.380Z,25.42
2022-12-20T15:46:56.976Z,17.83
2022-12-20T15:49:37.764Z,18.10
2022-12-20T15:52:17.332Z,21.13
2022-12-20T15:54:47.062Z,19.38
2022-12-20T15:57:25.820Z,17.98
2022-12-20T16:00:02.274Z,20.45
2022-12-20T16:02:31.797Z,24.10
2022-12-20T16:05:09.143Z,24.73
2022-12-20T16:07:36.754Z,20.77
2022-12-20T16:10:05.512Z,21.00
2022-12-20T16:12:54.168Z,24.25
2022-12-20T16:15:50.355Z,24.60
2022-12-20T16:18:52.993Z,22.75
2022-12-20T16:21:51.473Z,22.20
2022-12-20T16:24:20.673Z,22.73
2022-12-20T16:26:49.651Z,25.25
2022-12-20T16:29:17.125Z,25.98
2022-12-20T16:31:44.656Z,24.60
2022-12-20T16:34:17.243Z,23.10
2022-12-20T16:36:44.799Z,24.83
2022-12-20T16:39:12.000Z,27.67
2022-12-20T16:41:41.363Z,25.45
2022-12-20T16:44:16.557Z,23.25
2022-12-20T16:46:43.875Z,26.35
2022-12-20T16:49:19.437Z,29.55
2022-12-20T16:51:48.665Z,26.48
2022-12-20T16:54:21.418Z,32.03
2022-12-20T16:56:57.525Z,33.10
2022-12-20T16:59:25.443Z,34.28
2022-12-20T17:01:55.447Z,44.28
2022-12-20T17:04:23.320Z,30.15
2022-12-20T17:06:50.828Z,34.22
2022-12-20T17:12:04.429Z,36.72
2022-12-20T17:14:31.413Z,34.72
2022-12-20T17:16:58.299Z,34.95
2022-12-20T17:19:25.232Z,30.35
2022-12-20T17:24:36.562Z,33.13
2022-12-20T17:27:03.737Z,31.25
2022-12-20T17:29:31.146Z,31.45
2022-12-20T17:31:58.318Z,32.25
2022-12-20T17:34:28.464Z,32.55
2022-12-20T17:36:57.532Z,38.47
2022-12-20T17:39:25.874Z,37.70
2022-12-20T17:41:54.251Z,39.17
2022-12-20T17:44:26.954Z,36.15
2022-12-20T17:46:55.944Z,44.60
2022-12-20T17:49:23.665Z,36.15
2022-12-20T17:51:51.665Z,44.13
2022-12-20T17:54:28.880Z,40.60
2022-12-20T17:56:57.961Z,41.45
2022-12-20T17:59:25.945Z,43.38
2022-12-20T18:01:53.098Z,38.78
2022-12-20T18:04:20.514Z,40.10
2022-12-20T18:06:48.221Z,34.53
2022-12-20T18:09:18.711Z,42.50
2022-12-20T18:11:46.444Z,35.58
2022-12-20T18:14:14.762Z,39.58
2022-12-20T18:16:41.975Z,34.17
2022-12-20T18:19:15.402Z,38.97
2022-12-20T18:21:42.381Z,37.20
2022-12-20T18:24:15.982Z,39.03
2022-12-20T18:26:45.064Z,37.97
2022-12-20T18:29:12.534Z,41.60
2022-12-20T18:31:39.735Z,44.83
2022-12-20T18:34:06.667Z,39.53
2022-12-20T18:36:36.135Z,38.33
2022-12-20T18:39:05.465Z,47.38
2022-12-20T18:41:32.623Z,46.90
2022-12-20T18:44:05.134Z,42.58
2022-12-20T18:46:32.424Z,55.25
2022-12-20T18:49:00.951Z,51.13
2022-12-20T18:51:36.925Z,60.00
2022-12-20T18:54:06.031Z,57.75
2022-12-20T18:56:35.603Z,57.90
2022-12-20T18:59:10.870Z,52.90
2022-12-20T19:01:40.420Z,58.50
2022-12-20T19:04:08.371Z,58.28
2022-12-20T19:06:36.627Z,58.47
2022-12-20T19:09:06.897Z,55.90
2022-12-20T19:11:34.008Z,55.15
2022-12-20T19:14:01.205Z,62.60
2022-12-20T19:16:32.028Z,60.17
2022-12-20T19:19:00.343Z,63.55
2022-12-20T19:21:30.464Z,66.78
2022-12-20T19:23:59.832Z,70.65
2022-12-20T19:26:28.735Z,173.45
2022-12-20T19:28:57.294Z,241.18
2022-12-20T19:31:30.368Z,162.10
2022-12-20T19:34:10.550Z,87.57
2022-12-20T19:36:43.329Z,75.57
2022-12-20T19:39:17.158Z,62.78
2022-12-20T19:41:54.943Z,67.57
2022-12-20T19:44:31.532Z,59.80
2022-12-20T19:47:06.431Z,61.53
2022-12-20T19:49:35.590Z,60.58
2022-12-20T19:52:02.774Z,67.15
2022-12-20T19:54:29.860Z,66.35
2022-12-20T19:56:57.743Z,70.88
2022-12-20T19:59:25.254Z,70.05
2022-12-20T20:01:52.224Z,72.00
2022-12-20T20:04:19.291Z,86.80
2022-12-20T20:06:46.370Z,61.30
2022-12-20T20:09:13.314Z,68.68
2022-12-20T20:11:40.339Z,66.43
2022-12-20T20:14:09.522Z,72.70
2022-12-20T20:16:37.843Z,68.88
2022-12-20T20:19:05.839Z,79.93
2022-12-20T20:21:36.346Z,64.93
2022-12-20T20:24:03.984Z,52.03
2022-12-20T20:26:31.961Z,52.50
2022-12-20T20:29:01.904Z,42.78
2022-12-20T20:31:29.358Z,49.38
2022-12-20T20:33:58.512Z,44.17
2022-12-20T20:36:25.449Z,51.75
2022-12-20T20:38:52.633Z,50.78
2022-12-20T20:41:20.209Z,49.90
2022-12-20T20:43:47.289Z,55.10
2022-12-20T20:46:15.807Z,56.40
2022-12-20T20:48:43.854Z,46.55
2022-12-20T20:51:11.195Z,50.10
2022-12-20T20:53:38.364Z,49.03
2022-12-20T20:56:07.041Z,49.88
2022-12-20T20:58:34.801Z,53.95
2022-12-20T21:01:03.304Z,44.30
2022-12-20T21:03:31.332Z,49.40
2022-12-20T21:08:45.719Z,44.75
2022-12-20T21:11:13.326Z,38.42
2022-12-20T21:13:40.472Z,40.30
2022-12-20T21:16:14.063Z,33.60
2022-12-20T21:18:41.351Z,42.53
2022-12-20T21:21:10.718Z,43.55
2022-12-20T21:23:39.681Z,36.30
2022-12-20T21:26:07.765Z,40.58
2022-12-20T21:28:36.092Z,39.75
2022-12-20T21:31:05.553Z,37.97
2022-12-20T21:33:32.725Z,43.47
2022-12-20T21:36:01.264Z,46.10
2022-12-20T21:38:28.933Z,45.92
2022-12-20T21:41:11.448Z,48.05
2022-12-20T21:43:38.925Z,39.88
2022-12-20T21:46:11.202Z,38.83
2022-12-20T21:48:39.847Z,42.90
2022-12-20T21:51:16.827Z,46.53
2022-12-20T21:53:46.807Z,48.67
2022-12-20T21:56:15.966Z,53.78
2022-12-20T21:58:43.226Z,41.20
2022-12-20T22:01:14.381Z,41.88
2022-12-20T22:03:41.919Z,44.78
2022-12-20T22:06:08.941Z,35.17
2022-12-20T22:08:36.145Z,36.20
2022-12-20T22:11:06.221Z,38.55
2022-12-20T22:13:40.626Z,39.00
2022-12-20T22:16:14.288Z,34.88
2022-12-20T22:18:42.644Z,37.33
2022-12-20T22:21:13.246Z,35.25
2022-12-20T22:23:40.746Z,36.05
2022-12-20T22:26:11.112Z,39.08
2022-12-20T22:28:39.262Z,27.70
2022-12-20T22:31:10.826Z,32.60
2022-12-20T22:33:39.027Z,35.65
2022-12-20T22:36:06.902Z,30.92
2022-12-20T22:38:35.440Z,34.50
2022-12-20T22:41:11.095Z,34.95
2022-12-20T22:43:39.379Z,37.75
2022-12-20T22:46:06.661Z,28.55
2022-12-20T22:48:33.904Z,36.60
2022-12-20T22:51:01.736Z,32.10
2022-12-20T22:53:28.890Z,34.83
2022-12-20T22:55:56.080Z,40.95
2022-12-20T22:58:23.311Z,25.58
2022-12-20T23:00:50.340Z,32.72
2022-12-20T23:03:17.481Z,36.58
2022-12-20T23:05:56.273Z,35.40
2022-12-20T23:08:24.956Z,29.92
2022-12-20T23:11:10.419Z,32.60
2022-12-20T23:13:57.386Z,28.63
2022-12-20T23:16:27.454Z,46.42
2022-12-20T23:18:56.174Z,49.85
2022-12-20T23:21:41.917Z,68.72
2022-12-20T23:24:09.262Z,61.75
2022-12-20T23:26:37.141Z,74.22
2022-12-20T23:29:07.068Z,80.97
2022-12-20T23:31:34.786Z,72.20
2022-12-20T23:34:01.985Z,42.28
2022-12-20T23:36:29.661Z,36.38
2022-12-20T23:38:57.015Z,35.35
2022-12-20T23:41:24.061Z,29.08
2022-12-20T23:43:51.175Z,37.00
2022-12-20T23:46:19.942Z,29.65
2022-12-20T23:48:47.083Z,34.08
2022-12-20T23:51:14.160Z,33.13
2022-12-20T23:53:41.220Z,28.63
2022-12-20T23:56:10.541Z,29.20
2022-12-20T23:58:37.859Z,27.52
